Time;durP1;ratioP1;P1;durP2;ratioP2;P2;SDS_P1;SDS_P2;PMS_P1;PMS_P2;Temp;Humidity;BMP_temperature;BMP_pressure;BME280_temperature;BME280_humidity;BME280_pressure;Samples;Min_cycle;Max_cycle;Signal;HPM_P1;HPM_P2
2023/05/09 00:00:32;;;;;;;6.07;3.30;;;;;;;;;;5114972;28;20289;-79
2023/05/09 00:02:59;;;;;;;8.50;3.70;;;;;;;;;;5115059;28;20658;-80
2023/05/09 00:05:28;;;;;;;6.20;3.47;;;;;;;;;;5114550;28;20200;-79
2023/05/09 00:07:55;;;;;;;5.83;3.10;;;;;;;;;;5114772;28;20673;-80
2023/05/09 00:10:23;;;;;;;7.13;3.13;;;;;;;;;;5115136;28;20221;-80
2023/05/09 00:12:51;;;;;;;7.53;3.77;;;;;;;;;;5115104;28;20312;-79
2023/05/09 00:15:18;;;;;;;6.67;3.30;;;;;;;;;;5114605;28;20226;-79
2023/05/09 00:17:45;;;;;;;7.73;3.60;;;;;;;;;;5114409;28;20196;-79
2023/05/09 00:20:13;;;;;;;6.97;3.40;;;;;;;;;;5115270;28;20212;-79
2023/05/09 00:22:42;;;;;;;7.70;3.40;;;;;;;;;;5114659;28;20233;-79
2023/05/09 00:25:10;;;;;;;7.10;3.40;;;;;;;;;;5114767;28;20198;-79
2023/05/09 00:27:37;;;;;;;9.27;3.87;;;;;;;;;;5115141;28;20292;-79
2023/05/09 00:30:05;;;;;;;6.93;3.40;;;;;;;;;;5114774;28;20234;-79
2023/05/09 00:32:32;;;;;;;9.40;3.80;;;16.40;99.90;;;;;;5114363;28;20686;-80
2023/05/09 00:34:59;;;;;;;8.53;3.47;;;16.70;99.90;;;;;;5114047;28;20258;-80
2023/05/09 00:37:26;;;;;;;7.17;3.53;;;16.90;99.90;;;;;;5114337;28;20733;-80
2023/05/09 00:39:54;;;;;;;6.03;3.47;;;16.90;99.90;;;;;;5114402;28;20235;-80
2023/05/09 00:42:21;;;;;;;7.43;4.10;;;16.80;99.90;;;;;;5114008;28;20225;-79
2023/05/09 00:44:48;;;;;;;8.60;3.60;;;;;;;;;;5114517;28;20278;-79
2023/05/09 00:47:16;;;;;;;9.23;4.13;;;;;;;;;;5114195;28;20285;-79
2023/05/09 00:49:43;;;;;;;7.40;3.60;;;;;;;;;;5114266;28;20711;-79
2023/05/09 00:52:10;;;;;;;8.60;4.20;;;;;;;;;;5114166;28;20261;-80
2023/05/09 00:54:37;;;;;;;6.13;3.67;;;;;;;;;;5114347;28;20211;-78
2023/05/09 00:57:06;;;;;;;6.23;3.60;;;;;;;;;;5114084;27;20194;-79
2023/05/09 00:59:33;;;;;;;7.37;3.77;;;;;;;;;;5114195;28;20292;-79
2023/05/09 01:02:01;;;;;;;6.00;3.80;;;;;;;;;;5113809;27;20202;-79
2023/05/09 01:04:28;;;;;;;7.03;3.70;;;;;;;;;;5113946;28;20237;-79
2023/05/09 01:06:58;;;;;;;6.40;4.20;;;;;;;;;;5114037;28;20198;-80
2023/05/09 01:09:28;;;;;;;8.50;4.00;;;;;;;;;;5113818;28;20247;-79
2023/05/09 01:12:01;;;;;;;6.23;3.80;;;;;;;;;;5114045;28;20321;-79
2023/05/09 01:14:36;;;;;;;8.77;3.90;;;;;;;;;;5113550;28;20733;-79
2023/05/09 01:17:06;;;;;;;6.37;3.60;;;;;;;;;;5105482;28;20288;-78
2023/05/09 01:19:43;;;;;;;7.03;3.60;;;;;;;;;;5095149;28;20631;-79
2023/05/09 01:22:12;;;;;;;7.43;3.43;;;;;;;;;;5093101;28;20230;-79
2023/05/09 01:24:59;;;;;;;8.37;3.93;;;;;;;;;;5093185;28;20293;-79
2023/05/09 01:27:33;;;;;;;4.67;3.13;;;;;;;;;;5093282;28;20677;-79
2023/05/09 01:30:03;;;;;;;7.40;3.33;;;;;;;;;;5092747;28;20614;-79
2023/05/09 01:32:32;;;;;;;3.80;3.10;;;;;;;;;;5093025;28;20194;-79
2023/05/09 01:35:02;;;;;;;4.13;3.13;;;;;;;;;;5093506;28;20281;-80
2023/05/09 01:37:31;;;;;;;5.00;2.80;;;;;;;;;;5092818;28;20222;-80
2023/05/09 01:40:00;;;;;;;3.90;3.10;;;;;;;;;;5093117;28;20289;-80
2023/05/09 01:42:29;;;;;;;4.67;2.73;;;;;;;;;;5093098;28;20562;-79
2023/05/09 01:44:57;;;;;;;4.80;3.07;;;;;;;;;;5092171;28;20329;-79
2023/05/09 01:47:26;;;;;;;4.27;2.87;;;;;;;;;;5092965;28;20222;-79
2023/05/09 01:49:53;;;;;;;5.53;2.90;;;;;;;;;;5092439;28;20297;-79
2023/05/09 01:52:20;;;;;;;3.27;2.90;;;;;;;;;;5092649;28;20313;-79
2023/05/09 01:54:48;;;;;;;3.13;2.40;;;;;;;;;;5093199;28;20282;-79
2023/05/09 01:57:16;;;;;;;2.60;2.30;;;;;;;;;;5092670;28;20681;-79
2023/05/09 01:59:44;;;;;;;4.00;2.97;;;;;;;;;;5092328;28;20286;-80
2023/05/09 02:02:12;;;;;;;3.07;2.73;;;;;;;;;;5092686;28;20300;-80
2023/05/09 02:04:42;;;;;;;4.27;2.50;;;;;;;;;;5092695;28;20285;-78
2023/05/09 02:07:10;;;;;;;3.77;2.30;;;;;;;;;;5092814;28;20289;-79
2023/05/09 02:09:37;;;;;;;3.37;2.37;;;;;;;;;;5092277;28;20285;-79
2023/05/09 02:12:04;;;;;;;3.87;2.40;;;;;;;;;;5092572;28;20226;-78
2023/05/09 02:14:32;;;;;;;3.57;2.80;;;;;;;;;;5103472;28;20293;-81
2023/05/09 02:17:05;;;;;;;2.77;2.00;;;;;;;;;;5112708;28;20229;-81
2023/05/09 02:19:32;;;;;;;3.20;2.30;;;;;;;;;;5112828;28;20200;-81
2023/05/09 02:22:01;;;;;;;2.67;1.90;;;;;;;;;;5112871;28;20281;-80
2023/05/09 02:24:28;;;;;;;2.53;1.70;;;;;;;;;;5113123;28;20274;-81
2023/05/09 02:26:56;;;;;;;1.93;1.70;;;;;;;;;;5112587;28;20963;-79
2023/05/09 02:29:26;;;;;;;2.60;1.60;;;;;;;;;;5111934;28;20654;-80
2023/05/09 02:31:53;;;;;;;3.37;1.90;;;;;;;;;;5112114;28;20316;-80
2023/05/09 02:34:21;;;;;;;3.00;1.70;;;;;;;;;;5112596;28;20288;-80
2023/05/09 02:36:48;;;;;;;3.20;1.60;;;;;;;;;;5112168;28;20249;-81
2023/05/09 02:39:17;;;;;;;2.27;1.80;;;;;;;;;;5111894;28;20292;-80
2023/05/09 02:41:49;;;;;;;1.93;1.67;;;;;;;;;;5112469;28;20579;-81
2023/05/09 02:44:16;;;;;;;1.77;1.53;;;;;;;;;;5111951;28;20190;-80
2023/05/09 02:46:43;;;;;;;2.23;1.20;;;;;;;;;;5111848;28;20228;-80
2023/05/09 02:49:10;;;;;;;1.87;1.40;;;;;;;;;;5112406;28;20198;-79
2023/05/09 02:51:38;;;;;;;1.80;1.33;;;;;;;;;;5112148;28;20316;-80
2023/05/09 02:54:05;;;;;;;3.07;1.70;;;;;;;;;;5112068;28;20240;-81
2023/05/09 02:56:33;;;;;;;2.40;1.30;;;;;;;;;;5112199;28;20419;-80
2023/05/09 02:59:00;;;;;;;1.80;1.30;;;;;;;;;;5111668;28;20221;-81
2023/05/09 03:01:28;;;;;;;1.70;1.30;;;;;;;;;;5110939;28;20280;-81
2023/05/09 03:03:55;;;;;;;2.37;1.40;;;;;;;;;;5111657;28;20240;-81
2023/05/09 03:06:22;;;;;;;2.00;1.20;;;;;;;;;;5111995;28;20662;-81
2023/05/09 03:08:50;;;;;;;1.70;1.10;;;;;;;;;;5111604;28;20225;-80
2023/05/09 03:11:17;;;;;;;1.73;1.17;;;;;;;;;;5111822;28;20352;-81
2023/05/09 03:13:46;;;;;;;3.33;1.20;;;;;;;;;;5111285;28;20758;-80
2023/05/09 03:16:14;;;;;;;1.73;1.20;;;;;;;;;;5112303;28;20246;-81
2023/05/09 03:18:41;;;;;;;1.57;1.20;;;;;;;;;;5111571;28;20274;-80
2023/05/09 03:21:08;;;;;;;1.83;1.13;;;;;;;;;;5111814;28;20246;-80
2023/05/09 03:23:36;;;;;;;1.77;1.20;;;;;;;;;;5111790;28;20285;-81
2023/05/09 03:26:03;;;;;;;1.67;1.30;;;;;;;;;;5111618;28;20277;-81
2023/05/09 03:28:30;;;;;;;1.67;1.23;;;;;;;;;;5111478;28;20285;-81
2023/05/09 03:30:59;;;;;;;2.07;1.27;;;;;;;;;;5112114;28;20221;-80
2023/05/09 03:33:26;;;;;;;2.73;1.30;;;;;;;;;;5111594;28;20225;-80
2023/05/09 03:35:53;;;;;;;1.60;1.10;;;;;;;;;;5111718;28;20280;-80
2023/05/09 03:38:23;;;;;;;2.30;1.30;;;;;;;;;;5111443;28;20194;-79
2023/05/09 03:40:50;;;;;;;1.70;1.10;;;;;;;;;;5110992;28;20209;-80
2023/05/09 03:43:17;;;;;;;1.67;1.30;;;;;;;;;;5111470;28;20198;-80
2023/05/09 03:45:44;;;;;;;2.37;1.30;;;;;;;;;;5111427;28;20643;-80
2023/05/09 03:48:13;;;;;;;2.53;1.33;;;;;;;;;;5111366;28;20250;-80
2023/05/09 03:50:40;;;;;;;1.60;1.00;;;;;;;;;;5111542;28;20221;-79
2023/05/09 03:53:07;;;;;;;1.30;1.20;;;;;;;;;;5111442;28;20221;-79
2023/05/09 03:55:34;;;;;;;1.20;1.10;;;;;;;;;;5111064;28;20194;-80
2023/05/09 03:58:01;;;;;;;2.33;1.20;;;;;;;;;;5111550;28;20225;-80
2023/05/09 04:00:29;;;;;;;2.97;1.20;;;;;;;;;;5111410;28;20221;-80
2023/05/09 04:02:56;;;;;;;2.10;1.23;;;;;;;;;;5111272;28;20221;-79
2023/05/09 04:05:25;;;;;;;2.43;1.27;;;;;;;;;;5111379;28;20580;-80
2023/05/09 04:07:53;;;;;;;1.43;1.10;;;;;;;;;;5111180;28;20201;-80
2023/05/09 04:10:20;;;;;;;1.30;1.20;;;;;;;;;;5110473;28;20285;-80
2023/05/09 04:12:47;;;;;;;1.27;1.17;;;;;;;;;;5113282;28;20312;-79
2023/05/09 04:15:14;;;;;;;1.37;1.20;;;;;;;;;;5114870;28;20288;-80
2023/05/09 04:17:41;;;;;;;1.70;1.37;;;;;;;;;;5115180;28;20281;-80
2023/05/09 04:20:10;;;;;;;1.67;1.47;;;;;;;;;;5115088;28;20677;-80
2023/05/09 04:22:39;;;;;;;2.07;1.40;;;;;;;;;;5114927;28;20280;-80
2023/05/09 04:25:07;;;;;;;1.70;1.50;;;;;;;;;;5114423;28;20221;-79
2023/05/09 04:27:34;;;;;;;1.60;1.40;;;;;;;;;;5114764;27;20221;-80
2023/05/09 04:30:01;;;;;;;2.00;1.47;;;;;;;;;;5115041;28;20193;-80
2023/05/09 04:32:28;;;;;;;2.30;1.40;;;;;;;;;;5114349;28;20713;-80
2023/05/09 04:34:56;;;;;;;1.40;1.20;;;;;;;;;;5114287;28;20293;-80
2023/05/09 04:37:23;;;;;;;1.53;1.40;;;;;;;;;;5114471;28;20651;-79
2023/05/09 04:39:51;;;;;;;1.47;1.23;;;;;;;;;;5114259;28;20254;-79
2023/05/09 04:42:19;;;;;;;1.33;1.10;;;;;;;;;;5114556;28;20221;-80
2023/05/09 04:44:48;;;;;;;1.00;0.90;;;;;;;;;;5114677;28;20233;-79
2023/05/09 04:47:15;;;;;;;1.40;1.00;;;;;;;;;;5114546;28;20197;-80
2023/05/09 04:49:42;;;;;;;1.30;1.00;;;;;;;;;;5114033;28;20288;-80
2023/05/09 04:52:09;;;;;;;1.20;1.10;;;;;;;;;;5114550;28;20319;-80
2023/05/09 04:54:36;;;;;;;1.60;1.50;;;;;;;;;;5114136;28;20722;-78
2023/05/09 04:57:05;;;;;;;3.03;1.57;;;;;;;;;;5114249;28;20285;-79
2023/05/09 04:59:32;;;;;;;1.73;1.40;;;;;;;;;;5114491;27;20819;-79
2023/05/09 05:02:00;;;;;;;2.50;1.30;;;;;;;;;;5114284;28;20232;-79
2023/05/09 05:04:27;;;;;;;1.00;0.90;;;;;;;;;;5114235;28;20250;-80
2023/05/09 05:06:55;;;;;;;0.40;0.37;;;;;;;;;;5111136;27;20198;-80
2023/05/09 05:09:22;;;;;;;1.13;0.40;;;;;;;;;;5116635;27;20228;-79
2023/05/09 05:11:49;;;;;;;0.77;0.47;;;;;;;;;;5118399;27;20646;-84
2023/05/09 05:14:18;;;;;;;1.30;0.60;;;;;;;;;;5119735;27;20197;-84
2023/05/09 05:16:45;;;;;;;1.13;0.50;;;;;;;;;;5113976;27;20288;-82
2023/05/09 05:19:12;;;;;;;0.80;0.60;;;;;;;;;;5113621;28;20669;-83
2023/05/09 05:21:39;;;;;;;1.93;0.70;;;;;;;;;;5114028;28;20326;-83
2023/05/09 05:24:07;;;;;;;3.90;3.00;;;;;;;;;;5112979;27;20276;-83
2023/05/09 05:26:34;;;;;;;1.83;0.70;;;;;;;;;;5123173;27;20190;-81
2023/05/09 05:29:01;;;;;;;1.60;1.07;;;;;;;;;;5114017;28;20226;-82
2023/05/09 05:31:30;;;;;;;3.50;1.07;;;;;;;;;;5113391;28;20725;-82
2023/05/09 05:33:58;;;;;;;1.30;0.80;;;;;;;;;;5113008;28;20757;-83
2023/05/09 05:36:25;;;;;;;4.23;1.50;;;;;;;;;;5111898;28;20562;-83
2023/05/09 05:38:52;;;;;;;2.47;1.20;;;;;;;;;;5113018;28;20289;-83
2023/05/09 05:41:19;;;;;;;2.07;1.20;;;;;;;;;;5113149;28;20666;-82
2023/05/09 05:43:46;;;;;;;1.60;1.10;;;;;;;;;;5112395;28;20612;-81
2023/05/09 05:46:14;;;;;;;2.07;1.07;;;;;;;;;;5110608;28;20265;-79
2023/05/09 05:48:42;;;;;;;3.67;1.33;;;;;;;;;;5112777;28;20276;-79
2023/05/09 05:51:09;;;;;;;2.90;1.20;;;;;;;;;;5112749;28;20233;-78
2023/05/09 05:53:37;;;;;;;2.53;1.20;;;;;;;;;;5113018;28;20320;-83
2023/05/09 05:56:04;;;;;;;2.53;1.30;;;;;;;;;;5112073;28;20692;-83
2023/05/09 05:58:31;;;;;;;1.70;1.33;;;;;;;;;;5113205;28;20232;-84
2023/05/09 06:00:58;;;;;;;2.17;1.47;;;;;;;;;;5113404;28;20232;-83
2023/05/09 06:03:25;;;;;;;2.07;1.30;;;;;;;;;;5113494;28;20649;-82
2023/05/09 06:05:54;;;;;;;3.30;1.40;;;;;;;;;;5112795;28;20677;-84
2023/05/09 06:08:22;;;;;;;3.20;1.50;;;;;;;;;;5113120;28;20281;-82
2023/05/09 06:10:49;;;;;;;5.40;1.63;;;;;;;;;;5113047;28;20678;-84
2023/05/09 06:13:16;;;;;;;2.77;1.67;;;;;;;;;;5112481;28;20302;-84
2023/05/09 06:15:44;;;;;;;3.30;2.00;;;;;;;;;;5112773;28;20749;-83
2023/05/09 06:18:11;;;;;;;1.73;1.60;;;;;;;;;;5112941;28;20229;-82
2023/05/09 06:20:39;;;;;;;3.43;2.00;;;;;;;;;;5112655;28;20280;-84
2023/05/09 06:23:07;;;;;;;5.30;1.90;;;;;;;;;;5112670;28;20662;-84
2023/05/09 06:25:35;;;;;;;4.03;2.03;;;;;;;;;;5112669;28;20280;-84
2023/05/09 06:28:02;;;;;;;5.50;2.43;;;;;;;;;;5113134;28;20626;-84
2023/05/09 06:30:30;;;;;;;3.93;2.13;;;;;;;;;;5112623;28;20186;-84
2023/05/09 06:32:58;;;;;;;3.77;2.37;;;;;;;;;;5112711;28;20220;-84
2023/05/09 06:35:26;;;;;;;3.53;2.50;;;;;;;;;;5112126;28;20198;-84
2023/05/09 06:37:53;;;;;;;5.50;2.33;;;;;;;;;;5113119;28;20276;-84
2023/05/09 06:40:22;;;;;;;3.80;2.47;;;;;;;;;;5112771;28;20292;-84
2023/05/09 06:42:49;;;;;;;6.87;2.50;;;;;;;;;;5112409;28;20305;-84
2023/05/09 06:45:17;;;;;;;4.30;2.70;;;;;;;;;;5112222;28;20321;-84
2023/05/09 06:47:44;;;;;;;5.33;3.57;;;;;;;;;;5112652;28;20239;-84
2023/05/09 06:50:12;;;;;;;19.37;5.60;;;;;;;;;;5112145;28;20272;-84
2023/05/09 06:52:39;;;;;;;6.67;2.90;;;;;;;;;;5112150;28;20229;-84
2023/05/09 06:55:08;;;;;;;3.83;2.30;;;;;;;;;;5112389;28;20204;-83
2023/05/09 06:57:36;;;;;;;4.03;2.40;;;;;;;;;;5112714;28;20544;-84
2023/05/09 07:00:04;;;;;;;4.13;2.70;;;;;;;;;;5112031;28;20820;-83
2023/05/09 07:02:31;;;;;;;5.90;3.13;;;;;;;;;;5112268;28;20271;-82
2023/05/09 07:04:58;;;;;;;4.50;2.67;;;;;;;;;;5111935;28;20276;-84
2023/05/09 07:07:26;;;;;;;5.70;2.73;;;;;;;;;;5112151;28;20297;-84
2023/05/09 07:09:53;;;;;;;12.60;2.87;;;;;;;;;;5111880;28;20225;-83
2023/05/09 07:12:20;;;;;;;4.93;2.70;;;;;;;;;;5112157;28;20261;-84
2023/05/09 07:14:49;;;;;;;4.57;2.40;;;;;;;;;;5111931;28;20230;-83
2023/05/09 07:17:16;;;;;;;4.57;2.37;;;;;;;;;;5112493;28;20225;-84
2023/05/09 07:19:43;;;;;;;4.63;2.43;;;;;;;;;;5111898;28;20200;-84
2023/05/09 07:22:12;;;;;;;4.13;2.53;;;;;;;;;;5111970;28;20735;-84
2023/05/09 07:24:39;;;;;;;3.77;2.40;;;;;;;;;;5112059;28;20190;-84
2023/05/09 07:27:06;;;;;;;3.80;2.87;;;;;;;;;;5111946;28;20289;-84
2023/05/09 07:29:34;;;;;;;3.10;2.80;;;;;;;;;;5112017;28;20293;-84
2023/05/09 07:32:03;;;;;;;3.67;3.00;;;;;;;;;;5112001;28;20280;-84
2023/05/09 07:34:30;;;;;;;5.20;2.77;;;;;;;;;;5110658;28;20209;-84
2023/05/09 07:36:58;;;;;;;3.97;2.60;;;;;;;;;;5111612;28;20233;-84
2023/05/09 07:39:25;;;;;;;4.70;2.93;;;;;;;;;;5112053;28;20189;-84
2023/05/09 07:41:52;;;;;;;4.20;2.77;;;;;;;;;;5112047;28;20599;-84
2023/05/09 07:44:20;;;;;;;12.87;3.50;;;;;;;;;;5112112;28;20401;-86
2023/05/09 07:46:47;;;;;;;6.87;3.27;;;;;;;;;;5112016;28;20681;-85
2023/05/09 07:49:16;;;;;;;4.83;2.97;;;;;;;;;;5115995;28;20273;-84
2023/05/09 07:51:43;;;;;;;4.83;2.93;;;;;;;;;;5116269;28;20280;-85
2023/05/09 07:54:10;;;;;;;6.47;3.30;;;;;;;;;;5115780;28;20736;-84
2023/05/09 07:56:38;;;;;;;5.10;3.30;;;;;;;;;;5115955;28;20190;-84
2023/05/09 07:59:05;;;;;;;4.27;2.90;;;;;;;;;;5116274;28;20198;-85
2023/05/09 08:01:32;;;;;;;3.47;3.17;;;;;;;;;;5115145;28;20255;-85
2023/05/09 08:04:00;;;;;;;4.30;3.30;;;;;;;;;;5115260;28;20221;-85
2023/05/09 08:06:28;;;;;;;4.20;3.27;;;;;;;;;;5116042;28;20284;-85
2023/05/09 08:08:56;;;;;;;3.77;3.03;;;;;;;;;;5115822;28;20288;-85
2023/05/09 08:11:23;;;;;;;5.00;3.10;;;;;;;;;;5115848;28;20209;-85
2023/05/09 08:13:50;;;;;;;4.47;2.63;;;;;;;;;;5115697;28;20309;-85
2023/05/09 08:16:18;;;;;;;3.43;2.70;;;;;;;;;;5115382;28;20197;-85
2023/05/09 08:18:45;;;;;;;4.57;2.60;;;;;;;;;;5115463;27;20292;-84
2023/05/09 08:21:13;;;;;;;2.50;2.30;;;;;;;;;;5115791;28;20186;-85
2023/05/09 08:23:41;;;;;;;4.70;2.60;;;;;;;;;;5116186;28;20194;-85
2023/05/09 08:26:08;;;;;;;2.97;2.50;;;;;;;;;;5115240;28;20284;-85
2023/05/09 08:28:36;;;;;;;4.90;3.30;;;;;;;;;;5115860;28;20237;-85
2023/05/09 08:31:03;;;;;;;7.50;3.73;;;;;;;;;;5114972;28;20230;-86
2023/05/09 08:33:31;;;;;;;4.10;3.47;;;;;;;;;;5115308;28;20231;-86
2023/05/09 08:35:58;;;;;;;6.20;4.70;;;;;;;;;;5115550;28;20197;-85
2023/05/09 08:38:25;;;;;;;7.70;5.73;;;;;;;;;;5115673;28;20285;-86
2023/05/09 08:40:54;;;;;;;10.27;7.73;;;;;;;;;;5115122;28;20190;-86
2023/05/09 08:43:22;;;;;;;12.03;9.60;;;;;;;;;;5115536;28;20277;-85
2023/05/09 08:45:52;;;;;;;13.00;8.87;;;;;;;;;;5115062;28;20265;-85
2023/05/09 08:48:20;;;;;;;8.73;6.83;;;;;;;;;;5115556;28;20606;-86
2023/05/09 08:50:47;;;;;;;7.17;5.17;;;;;;;;;;5115390;28;20194;-84
2023/05/09 08:53:15;;;;;;;5.60;4.93;;;;;;;;;;5115413;28;20233;-85
2023/05/09 08:55:42;;;;;;;5.57;3.87;;;;;;;;;;5115308;28;20186;-86
2023/05/09 08:58:11;;;;;;;5.37;3.60;;;;;;;;;;5114406;28;20285;-85
2023/05/09 09:00:40;;;;;;;6.33;3.70;;;;;;;;;;5114212;28;20289;-85
2023/05/09 09:03:07;;;;;;;5.60;3.60;;;;;;;;;;5115605;28;20234;-86
2023/05/09 09:05:36;;;;;;;8.23;4.50;;;;;;;;;;5115437;28;20241;-86
2023/05/09 09:08:05;;;;;;;5.90;3.70;;;;;;;;;;5115503;28;20644;-87
2023/05/09 09:10:33;;;;;;;5.82;3.20;;;;;;;;;;5115900;28;20198;-86
2023/05/09 09:13:02;;;;;;;6.63;3.58;;;;;;;;;;5115117;28;20222;-87
2023/05/09 09:15:34;;;;;;;4.13;2.60;;;;;;;;;;5114581;28;20198;-86
2023/05/09 09:18:05;;;;;;;3.08;2.15;;;;;;;;;;5115296;28;20272;-87
2023/05/09 09:20:32;;;;;;;4.15;2.30;;;;;;;;;;5115474;28;20233;-85
2023/05/09 09:23:00;;;;;;;2.70;1.90;;;;;;;;;;5115389;28;20301;-85
2023/05/09 09:25:28;;;;;;;4.35;2.20;;;;;;;;;;5115375;28;20198;-86
2023/05/09 09:27:55;;;;;;;3.63;2.50;;;;;;;;;;5114927;28;20678;-86
2023/05/09 09:30:25;;;;;;;4.03;2.20;;;;;;;;;;5115098;28;20233;-88
2023/05/09 09:32:54;;;;;;;4.82;2.65;;;;;;;;;;5115059;28;20308;-87
2023/05/09 09:35:23;;;;;;;5.25;2.75;;;;;;;;;;5115305;28;20322;-87
2023/05/09 09:37:56;;;;;;;3.40;2.33;;;;;;;;;;5115054;28;20197;-87
2023/05/09 09:40:25;;;;;;;3.20;2.80;;;;;;;;;;5115418;27;20189;-88
2023/05/09 09:42:53;;;;;;;3.30;2.53;;;;;;;;;;5114824;28;20229;-88
2023/05/09 09:45:20;;;;;;;6.07;2.53;;;;;;;;;;5114360;27;20613;-88
2023/05/09 09:47:48;;;;;;;3.35;1.95;;;;;;;;;;5115010;28;20208;-88
2023/05/09 09:50:18;;;;;;;2.85;2.10;;;;;;;;;;5114828;28;20197;-88
2023/05/09 09:52:50;;;;;;;3.00;1.80;;;;;;;;;;5114939;28;20216;-87
2023/05/09 09:55:18;;;;;;;3.45;1.83;;;;;;;;;;5115082;28;20637;-86
2023/05/09 09:57:47;;;;;;;2.85;1.70;;;;;;;;;;5114603;28;20293;-88
2023/05/09 10:00:15;;;;;;;5.47;1.83;;;;;;;;;;5114292;28;20671;-86
2023/05/09 10:02:49;;;;;;;4.07;1.90;;;;;;;;;;5114664;27;20289;-86
2023/05/09 10:05:22;;;;;;;3.97;1.90;;;;;;;;;;5114205;28;20292;-88
2023/05/09 10:07:54;;;;;;;3.05;1.63;;;;;;;;;;5114370;28;20221;-88
2023/05/09 10:10:22;;;;;;;7.60;1.75;;;;;;;;;;5114387;28;20625;-88
2023/05/09 10:12:51;;;;;;;2.83;1.50;;;;;;;;;;5114028;28;20236;-86
2023/05/09 10:15:20;;;;;;;2.50;1.48;;;;;;;;;;5114175;28;20201;-87
2023/05/09 10:17:48;;;;;;;2.70;1.77;;;;;;;;;;5114197;28;20292;-88
2023/05/09 10:20:16;;;;;;;3.05;1.70;;;;;;;;;;5114487;28;20222;-87
2023/05/09 10:22:46;;;;;;;2.58;1.80;;;;;;;;;;5114405;28;20265;-87
2023/05/09 10:25:15;;;;;;;2.33;1.80;;;;;;;;;;5114288;28;20288;-87
2023/05/09 10:27:45;;;;;;;2.42;1.80;;;;;;;;;;5114084;28;20284;-87
2023/05/09 10:30:15;;;;;;;5.18;2.00;;;;;;;;;;5114205;28;20272;-88
2023/05/09 10:32:47;;;;;;;2.60;1.77;;;;;;;;;;5114080;28;20280;-87
2023/05/09 10:35:17;;;;;;;3.05;1.70;;;;;;;;;;5114360;28;20190;-89
2023/05/09 10:37:46;;;;;;;2.88;1.80;;;;;;;;;;5114019;28;20205;-88
2023/05/09 10:40:14;;;;;;;3.03;1.88;;;;;;;;;;5113941;28;20257;-88
2023/05/09 10:42:43;;;;;;;2.28;1.73;;;;;;;;;;5113573;28;20198;-88
2023/05/09 10:45:11;;;;;;;4.13;1.70;;;;;;;;;;5113619;28;20233;-88
2023/05/09 10:47:39;;;;;;;3.35;1.70;;;;;;;;;;5114075;28;20196;-90
2023/05/09 10:50:27;;;;;;;1.90;1.60;;;;;;;;;;5131475;27;20548;-87
2023/05/09 10:53:10;;;;;;;2.05;1.70;;;;;;;;;;5131662;28;20288;-88
2023/05/09 10:55:37;;;;;;;2.38;1.63;;;;;;;;;;5131128;28;20553;-83
2023/05/09 10:58:19;;;;;;;2.10;1.60;;;;;;;;;;5131025;28;20221;-87
2023/05/09 11:00:47;;;;;;;2.38;1.48;;;;;;;;;;5131194;27;20196;-86
2023/05/09 11:03:14;;;;;;;3.03;1.80;;;;;;;;;;5130973;28;20284;-88
2023/05/09 11:05:43;;;;;;;3.05;1.90;;;;;;;;;;5130975;28;20232;-87
2023/05/09 11:08:20;;;;;;;3.33;1.70;;;;;;;;;;5131147;28;20720;-89
2023/05/09 11:10:47;;;;;;;3.78;1.95;;;;;;;;;;5130838;28;20289;-86
2023/05/09 11:13:18;;;;;;;2.55;2.00;;;;;;;;;;5130259;27;20283;-88
2023/05/09 11:16:04;;;;;;;2.58;1.73;;;;;;;;;;5130818;28;20582;-88
2023/05/09 11:18:32;;;;;;;2.38;1.52;;;;;;;;;;5131059;27;20696;-89
2023/05/09 11:21:08;;;;;;;2.70;1.75;;;;;;;;;;5130967;27;20228;-90
2023/05/09 11:23:35;;;;;;;3.38;2.00;;;;;;;;;;5130765;28;20207;-87
2023/05/09 11:26:06;;;;;;;2.85;1.85;;;;;;;;;;5130335;28;20285;-88
2023/05/09 11:28:35;;;;;;;2.45;1.77;;;;;;;;;;5130668;28;20252;-87
2023/05/09 11:31:12;;;;;;;1.88;1.30;;;;;;;;;;5130985;28;20201;-88
2023/05/09 11:33:40;;;;;;;2.35;1.10;;;;;;;;;;5130948;28;20209;-89
2023/05/09 11:36:24;;;;;;;2.38;1.25;;;;;;;;;;5130740;27;20228;-90
2023/05/09 11:39:01;;;;;;;2.25;1.50;;;;;;;;;;5130819;28;20197;-90
2023/05/09 11:41:28;;;;;;;2.58;1.80;;;;;;;;;;5130578;28;20195;-88
2023/05/09 11:43:58;;;;;;;2.38;1.40;;;;;;;;;;5130848;28;20228;-90
2023/05/09 11:46:25;;;;;;;3.10;1.13;;;;;;;;;;5131006;27;20197;-91
2023/05/09 11:48:54;;;;;;;4.03;1.20;;;;;;;;;;5130601;28;20316;-89
2023/05/09 11:51:23;;;;;;;1.75;0.90;;;;;;;;;;5130668;27;20194;-89
2023/05/09 11:53:52;;;;;;;2.35;0.80;;;;;;;;;;5130425;27;20288;-91
2023/05/09 11:56:22;;;;;;;1.63;0.98;;;;;;;;;;5130781;28;20224;-90
2023/05/09 11:58:51;;;;;;;1.50;0.90;;;;;;;;;;5130494;28;20193;-89
2023/05/09 12:01:19;;;;;;;3.22;1.00;;;;;;;;;;5118771;28;20638;-89
2023/05/09 12:03:46;;;;;;;2.85;1.02;;;;;;;;;;5116718;28;20230;-89
2023/05/09 12:06:17;;;;;;;3.58;1.10;;;;;;;;;;5116406;28;20273;-90
2023/05/09 12:08:46;;;;;;;3.53;1.15;;;;;;;;;;5116580;28;20222;-88
2023/05/09 12:11:14;;;;;;;2.00;1.20;;;;;;;;;;5116626;28;20731;-88
2023/05/09 12:13:48;;;;;;;2.00;1.10;;;;;;;;;;5112344;28;20742;-90
2023/05/09 12:16:15;;;;;;;2.25;0.90;;;;;;;;;;5096103;28;20190;-89
2023/05/09 12:18:48;;;;;;;1.98;1.10;;;;;;;;;;5095797;28;20191;-89
2023/05/09 12:21:15;;;;;;;1.60;1.08;;;;;;;;;;5096108;28;20701;-89
2023/05/09 12:23:43;;;;;;;1.40;0.90;;;;;;;;;;5095514;28;20278;-88
2023/05/09 12:26:12;;;;;;;2.83;1.08;;;;;;;;;;5095413;28;20216;-88
2023/05/09 12:28:40;;;;;;;2.35;1.17;;;;;;;;;;5095204;28;20194;-87
2023/05/09 12:31:07;;;;;;;2.25;1.10;;;;;;;;;;5094912;28;20186;-85
2023/05/09 12:33:35;;;;;;;1.65;1.20;;;;;;;;;;5094723;28;20286;-85
2023/05/09 12:36:04;;;;;;;2.58;1.10;;;;;;;;;;5094496;28;20724;-85
2023/05/09 12:38:31;;;;;;;3.60;1.10;;;;;;;;;;5094582;28;20617;-85
2023/05/09 12:41:02;;;;;;;7.60;2.38;;;;;;;;;;5095049;28;20273;-87
2023/05/09 12:43:34;;;;;;;5.32;1.90;;;;;;;;;;5094576;28;20209;-87
2023/05/09 12:46:02;;;;;;;2.90;1.60;;;;;;;;;;5094940;28;20203;-88
2023/05/09 12:48:30;;;;;;;3.20;1.80;;;;;;;;;;5094865;28;20230;-88
2023/05/09 12:50:57;;;;;;;3.80;1.80;;;;;;;;;;5094690;28;20209;-88
2023/05/09 12:53:25;;;;;;;2.67;1.60;;;;;;;;;;5094384;28;20226;-87
2023/05/09 12:55:55;;;;;;;1.90;1.70;;;;;;;;;;5095268;28;20194;-89
2023/05/09 12:58:23;;;;;;;2.72;1.50;;;;;;;;;;5095794;28;20182;-91
2023/05/09 13:00:51;;;;;;;2.13;1.25;;;;;;;;;;5095589;28;20285;-91
2023/05/09 13:03:23;;;;;;;3.90;1.50;;;;;;;;;;5095512;28;20226;-91
2023/05/09 13:05:57;;;;;;;2.33;1.42;;;;;;;;;;5095589;28;20278;-88
2023/05/09 13:08:25;;;;;;;2.47;1.45;;;;;;;;;;5094787;28;20209;-89
2023/05/09 13:10:52;;;;;;;2.72;1.35;;;;;;;;;;5095054;28;20234;-89
2023/05/09 13:13:21;;;;;;;2.00;1.30;;;;;;;;;;5095110;28;20213;-88
2023/05/09 13:15:49;;;;;;;2.28;1.45;;;;;;;;;;5115286;28;20198;-89
2023/05/09 13:18:19;;;;;;;2.53;1.70;;;;;;;;;;5115288;28;20236;-87
2023/05/09 13:20:46;;;;;;;3.42;1.50;;;;;;;;;;5115129;28;20190;-89
2023/05/09 13:23:13;;;;;;;3.95;1.50;;;;;;;;;;5115416;28;20288;-90
2023/05/09 13:25:41;;;;;;;1.98;1.70;;;;;;;;;;5115063;28;20281;-89
2023/05/09 13:28:08;;;;;;;3.80;2.10;;;;;;;;;;5115421;28;20198;-91
2023/05/09 13:30:36;;;;;;;2.10;1.90;;;;;;;;;;5115123;28;20210;-88
2023/05/09 13:33:03;;;;;;;3.05;2.20;;;;;;;;;;5115333;28;20601;-90
2023/05/09 13:35:32;;;;;;;4.28;2.72;;;;;;;;;;5114700;28;20221;-89
2023/05/09 13:38:00;;;;;;;3.58;2.20;;;;;;;;;;5114778;28;20226;-88
2023/05/09 13:40:27;;;;;;;4.47;2.33;;;;;;;;;;5114877;28;20239;-90
2023/05/09 13:42:54;;;;;;;5.75;2.10;;;;;;;;;;5114790;28;20273;-90
2023/05/09 13:45:22;;;;;;;4.10;1.92;;;;;;;;;;5115186;28;20223;-90
2023/05/09 13:47:49;;;;;;;1.85;1.40;;;;;;;;;;5114540;28;20568;-89
2023/05/09 13:50:17;;;;;;;4.35;1.40;;;;;;;;;;5113849;28;20318;-92
2023/05/09 13:52:46;;;;;;;2.60;1.40;;;;;;;;;;5115033;28;20280;-91
2023/05/09 13:55:13;;;;;;;2.05;1.10;;;;;;;;;;5114867;28;20213;-92
2023/05/09 13:57:41;;;;;;;1.92;1.00;;;;;;;;;;5113422;28;20285;-88
2023/05/09 14:00:09;;;;;;;2.00;1.40;;;;;;;;;;5114693;28;20218;-90
2023/05/09 14:02:37;;;;;;;2.67;2.00;;;;;;;;;;5114274;28;20235;-86
2023/05/09 14:05:04;;;;;;;4.53;1.63;;;;;;;;;;5113619;28;20717;-89
2023/05/09 14:07:32;;;;;;;1.95;0.73;;;;;;;;;;5114392;28;20255;-89
2023/05/09 14:10:03;;;;;;;2.13;0.63;;;;;;;;;;5114009;28;20233;-87
2023/05/09 14:12:31;;;;;;;2.60;0.70;;;;;;;;;;5114436;28;20190;-89
2023/05/09 14:14:58;;;;;;;1.20;0.63;;;;;;;;;;5114273;28;20288;-91
2023/05/09 14:17:26;;;;;;;1.98;0.70;;;;;;;;;;5113670;28;20617;-89
2023/05/09 14:19:53;;;;;;;1.60;0.50;;;;;;;;;;5113522;28;20289;-88
2023/05/09 14:22:20;;;;;;;0.88;0.65;;;;;;;;;;5114259;28;20277;-88
2023/05/09 14:24:48;;;;;;;2.55;0.60;;;;;;;;;;5113952;28;20185;-89
2023/05/09 14:27:17;;;;;;;2.28;0.50;;;;;;;;;;5114324;28;20186;-88
2023/05/09 14:29:44;;;;;;;1.40;0.52;;;;;;;;;;5114023;28;20575;-92
2023/05/09 14:32:13;;;;;;;0.55;0.40;;;;;;;;;;5113659;28;20194;-88
2023/05/09 14:34:40;;;;;;;1.15;0.30;;;;;;;;;;5113822;28;20222;-90
2023/05/09 14:37:12;;;;;;;2.85;0.50;;;;;;;;;;5114236;28;20206;-90
2023/05/09 14:39:40;;;;;;;2.58;0.45;;;;;;;;;;5113355;28;20209;-89
2023/05/09 14:42:10;;;;;;;0.85;0.40;;;;;;;;;;5113846;28;20190;-89
2023/05/09 14:44:38;;;;;;;2.80;0.70;;;;;;;;;;5114337;28;20193;-88
2023/05/09 14:47:06;;;;;;;0.55;0.30;;;;;;;;;;5113856;28;20186;-89